Time;durP1;ratioP1;P1;durP2;ratioP2;P2;SDS_P1;SDS_P2;PMS_P1;PMS_P2;Temp;Humidity;BMP_temperature;BMP_pressure;BME280_temperature;BME280_humidity;BME280_pressure;Samples;Min_cycle;Max_cycle;Signal;HPM_P1;HPM_P2
2022/06/07 00:01:08;;;;;;;27.38;15.82;;;;;;;12.82;97.17;101259.50;5039773;28;20129;-75
2022/06/07 00:03:35;;;;;;;28.88;15.63;;;;;;;12.82;97.29;101256.84;5047288;28;20052;-75
2022/06/07 00:06:03;;;;;;;34.13;17.65;;;;;;;12.83;97.21;101255.09;5041205;28;20099;-75
2022/06/07 00:08:31;;;;;;;30.63;16.70;;;;;;;12.83;97.19;101247.16;5039165;28;20157;-75
2022/06/07 00:10:58;;;;;;;35.65;17.23;;;;;;;12.82;97.10;101251.56;5050229;28;20549;-74
2022/06/07 00:13:26;;;;;;;34.67;17.88;;;;;;;12.82;97.15;101250.72;5040349;28;20054;-73
2022/06/07 00:15:54;;;;;;;32.38;17.38;;;;;;;12.80;97.10;101242.84;5033414;28;20049;-72
2022/06/07 00:18:23;;;;;;;34.78;18.40;;;;;;;12.79;97.12;101235.81;5039355;28;20038;-73
2022/06/07 00:20:50;;;;;;;36.67;19.10;;;;;;;12.78;96.89;101233.19;5039393;28;20116;-73
2022/06/07 00:23:19;;;;;;;34.92;18.73;;;;;;;12.78;97.02;101234.09;5040414;28;20975;-74
2022/06/07 00:25:53;;;;;;;36.78;20.60;;;;;;;12.79;97.14;101234.94;5032003;28;20149;-74
2022/06/07 00:28:21;;;;;;;44.08;22.55;;;;;;;12.78;97.12;101230.56;5033541;28;20463;-76
2022/06/07 00:30:51;;;;;;;37.05;19.88;;;;;;;12.75;97.23;101231.53;5042619;28;20323;-74
2022/06/07 00:33:22;;;;;;;43.72;21.38;;;;;;;12.71;97.29;101222.84;5038396;28;20881;-74
2022/06/07 00:35:50;;;;;;;48.60;21.98;;;;;;;12.67;96.93;101233.56;5040880;28;20514;-74
2022/06/07 00:38:17;;;;;;;45.80;22.17;;;;;;;12.63;97.04;101222.22;5043934;28;20475;-77
2022/06/07 00:40:44;;;;;;;55.72;23.42;;;;;;;12.63;97.20;101227.50;5046792;28;20046;-77
2022/06/07 00:43:12;;;;;;;44.38;22.48;;;;;;;12.63;97.20;101218.69;5041377;28;20052;-76
2022/06/07 00:45:39;;;;;;;47.90;23.30;;;;;;;12.63;97.13;101221.34;5041364;28;20076;-74
2022/06/07 00:48:08;;;;;;;52.05;23.40;;;;;;;12.61;97.15;101224.06;5046569;28;20056;-76
2022/06/07 00:50:51;;;;;;;48.50;22.95;;;;;;;12.61;97.19;101220.56;5038373;28;20121;-73
2022/06/07 00:53:28;;;;;;;49.28;23.90;;;;;;;12.60;97.30;101221.47;5039514;28;20053;-75
2022/06/07 00:56:06;;;;;;;44.47;23.08;;;;;;;12.60;97.49;101214.38;5047232;28;20052;-76
2022/06/07 00:58:35;;;;;;;47.78;24.38;;;;;;;12.61;97.38;101221.41;5036021;28;20053;-75
2022/06/07 01:01:05;;;;;;;48.33;24.08;;;;;;;12.60;97.35;101206.44;5038052;28;20042;-76
2022/06/07 01:03:40;;;;;;;49.85;24.23;;;;;;;12.61;97.22;101205.53;5052278;28;20071;-76
2022/06/07 01:11:42;;;;;;;51.42;25.13;;;;;;;12.57;97.20;101210.06;5045096;28;20046;-74
2022/06/07 01:14:09;;;;;;;54.33;25.73;;;;;;;12.58;97.17;101202.97;5059127;28;20045;-75
2022/06/07 01:16:37;;;;;;;52.78;24.95;;;;;;;12.58;97.23;101202.97;5044164;28;20084;-75
2022/06/07 01:19:05;;;;;;;49.35;25.38;;;;;;;12.58;97.21;101201.22;5041111;28;20405;-76
2022/06/07 01:21:37;;;;;;;52.67;26.35;;;;;;;12.60;97.21;101208.25;5057601;28;20045;-75
2022/06/07 01:24:08;;;;;;;49.85;25.45;;;;;;;12.61;97.35;101199.41;5040198;28;20132;-76
2022/06/07 01:26:47;;;;;;;49.65;26.30;;;;;;;12.59;97.28;101199.44;5034713;28;20528;-75
2022/06/07 01:29:15;;;;;;;50.08;25.02;;;;;;;12.60;97.25;101203.81;5032170;28;20052;-75
2022/06/07 01:31:44;;;;;;;56.40;26.30;;;;;;;12.61;97.12;101194.09;5046450;28;20486;-76
2022/06/07 01:34:15;;;;;;;58.65;27.25;;;;;;;12.61;97.18;101202.03;5040900;28;20080;-75
2022/06/07 01:36:43;;;;;;;50.60;26.23;;;;;;;12.61;97.25;101191.47;5045492;28;20046;-77
2022/06/07 01:41:56;;;;;;;51.95;25.90;;;;;;;12.63;97.46;101186.97;5035592;28;20038;-78
2022/06/07 01:44:39;;;;;;;48.97;26.52;;;;;;;12.66;97.44;101186.88;5048350;28;20051;-77
2022/06/07 01:47:12;;;;;;;50.40;26.15;;;;;;;12.66;97.36;101185.09;5033999;28;20041;-77
2022/06/07 01:49:48;;;;;;;47.72;25.15;;;;;;;12.65;97.36;101177.19;5050627;28;20048;-76
2022/06/07 01:52:23;;;;;;;49.40;25.98;;;;;;;12.65;97.44;101169.25;5049271;28;20216;-76
2022/06/07 01:54:54;;;;;;;47.63;24.95;;;;;;;12.66;97.31;101171.00;5042059;28;20064;-76
2022/06/07 01:57:22;;;;;;;42.60;24.98;;;;;;;12.66;96.70;101173.66;5046001;28;20041;-77
2022/06/07 01:59:52;;;;;;;47.13;25.40;;;;;;;12.66;96.73;101168.34;5040362;28;20127;-76
2022/06/07 02:02:24;;;;;;;52.10;26.38;;;;;;;12.67;96.93;101167.44;5045093;28;20060;-78
2022/06/07 02:04:52;;;;;;;49.20;25.15;;;;;;;12.68;96.95;101169.16;5052859;28;20065;-78
2022/06/07 02:07:21;;;;;;;48.22;26.73;;;;;;;12.68;96.92;101161.25;5045118;28;20072;-77
2022/06/07 02:09:55;;;;;;;51.45;25.95;;;;;;;12.66;96.97;101157.78;5046458;28;20463;-75
2022/06/07 02:12:23;;;;;;;51.50;26.10;;;;;;;12.68;96.97;101153.31;5037416;28;20062;-76
2022/06/07 02:14:50;;;;;;;42.08;23.23;;;;;;;12.69;96.91;101158.53;5033570;28;20042;-76
2022/06/07 02:17:17;;;;;;;42.45;24.33;;;;;;;12.68;96.69;101150.66;5049515;28;20515;-77
2022/06/07 02:20:01;;;;;;;42.35;24.08;;;;;;;12.67;96.67;101148.94;5043015;28;20511;-73
2022/06/07 02:22:30;;;;;;;42.67;22.23;;;;;;;12.68;96.73;101148.00;5034146;28;20038;-74
2022/06/07 02:24:57;;;;;;;37.30;21.63;;;;;;;12.68;96.33;101148.00;5043392;28;20462;-73
2022/06/07 02:27:24;;;;;;;37.90;21.45;;;;;;;12.68;96.36;101148.88;5046670;28;20152;-73
2022/06/07 02:29:54;;;;;;;36.40;21.20;;;;;;;12.68;96.25;101145.38;5032000;28;20050;-73
2022/06/07 02:32:29;;;;;;;34.10;20.38;;;;;;;12.69;96.45;101144.44;5040894;28;20046;-73
2022/06/07 02:35:01;;;;;;;35.83;20.73;;;;;;;12.67;95.93;101139.19;5037139;28;20041;-74
2022/06/07 02:37:29;;;;;;;32.13;18.75;;;;;;;12.66;96.04;101136.63;5049937;28;20048;-73
2022/06/07 02:39:58;;;;;;;33.03;18.88;;;;;;;12.65;95.72;101137.53;5037397;28;20467;-74
2022/06/07 02:42:28;;;;;;;38.90;20.05;;;;;;;12.64;95.72;101141.97;5048434;28;20061;-74
2022/06/07 02:44:57;;;;;;;30.67;18.92;;;;;;;12.64;95.45;101143.72;5048331;28;20124;-75
2022/06/07 02:47:26;;;;;;;29.42;17.95;;;;;;;12.64;95.28;101135.78;5051067;28;20125;-75
2022/06/07 02:49:58;;;;;;;;;;;;;;;12.61;94.90;101136.78;5048836;28;20046;-74
2022/06/07 02:52:26;;;;;;;32.97;18.77;;;;;;;12.61;95.00;101130.63;5037177;28;20410;-76
2022/06/07 02:55:11;;;;;;;32.33;17.52;;;;;;;12.62;95.07;101130.56;5049879;28;20044;-75
2022/06/07 02:57:41;;;;;;;25.30;15.15;;;;;;;12.64;94.30;101125.22;5037442;28;20129;-76
2022/06/07 03:00:14;;;;;;;24.20;15.32;;;;;;;12.61;93.98;101120.91;5035757;28;20176;-75
2022/06/07 03:02:43;;;;;;;25.45;14.82;;;;;;;12.61;93.99;101128.00;5043384;28;20057;-77
2022/06/07 03:05:11;;;;;;;19.33;14.20;;;;;;;12.60;93.62;101135.03;5045781;28;20041;-74
2022/06/07 03:07:46;;;;;;;21.90;13.70;;;;;;;12.56;92.70;101131.63;5041528;28;20037;-73
2022/06/07 03:10:14;;;;;;;21.90;14.30;;;;;;;12.55;93.43;101131.69;5048031;28;20349;-74
2022/06/07 03:12:43;;;;;;;19.98;13.38;;;;;;;12.55;93.32;101135.19;5033321;28;20065;-74
2022/06/07 03:15:15;;;;;;;22.23;13.88;;;;;;;12.54;93.02;101132.63;5041523;28;20495;-74
2022/06/07 03:17:44;;;;;;;23.17;13.80;;;;;;;12.55;93.23;101137.00;5046804;28;20547;-74
2022/06/07 03:20:14;;;;;;;21.70;13.85;;;;;;;12.55;93.14;101140.50;5036482;28;20046;-74
2022/06/07 03:22:43;;;;;;;23.60;13.07;;;;;;;12.55;92.57;101134.34;5036932;28;20045;-75
2022/06/07 03:25:11;;;;;;;18.52;13.55;;;;;;;12.55;92.60;101140.50;5036169;28;20042;-73
2022/06/07 03:27:41;;;;;;;18.05;12.35;;;;;;;12.52;92.54;101134.44;5033119;28;20042;-74
2022/06/07 03:30:13;;;;;;;24.02;13.27;;;;;;;12.51;92.99;101138.88;5046280;28;20042;-75
2022/06/07 03:32:45;;;;;;;22.42;12.95;;;;;;;12.52;92.14;101145.03;5051289;28;20187;-75
2022/06/07 03:35:14;;;;;;;16.73;11.57;;;;;;;12.51;92.14;101149.47;5043268;28;20569;-75
2022/06/07 03:37:42;;;;;;;15.32;11.23;;;;;;;12.48;91.06;101141.63;5062909;28;20048;-75
2022/06/07 03:40:14;;;;;;;20.38;11.88;;;;;;;12.49;91.50;101147.75;5022855;28;20490;-75
2022/06/07 03:42:42;;;;;;;21.08;11.82;;;;;;;12.46;91.64;101151.38;5047655;28;20044;-76
2022/06/07 03:45:10;;;;;;;19.98;11.35;;;;;;;12.48;92.29;101157.47;5043902;28;20125;-77
2022/06/07 03:47:38;;;;;;;14.77;10.75;;;;;;;12.43;91.46;101157.63;5035317;28;20126;-76
2022/06/07 03:50:09;;;;;;;19.15;11.18;;;;;;;12.42;90.50;101161.19;5038981;28;20052;-76
2022/06/07 03:52:38;;;;;;;19.38;11.73;;;;;;;12.43;91.68;101157.63;5032553;28;20424;-75
2022/06/07 03:55:06;;;;;;;16.73;11.35;;;;;;;12.43;92.21;101159.41;5062439;28;20045;-74
2022/06/07 03:57:53;;;;;;;16.50;10.48;;;;;;;12.45;92.66;101160.22;5051273;28;20042;-75
2022/06/07 04:00:21;;;;;;;12.95;9.45;;;;;;;12.49;92.83;101168.91;5028317;28;20053;-75
2022/06/07 04:02:52;;;;;;;14.73;10.20;;;;;;;12.49;92.38;101168.91;5039154;28;20846;-75
2022/06/07 04:05:19;;;;;;;15.05;10.55;;;;;;;12.50;92.63;101163.59;5053703;28;20049;-75
2022/06/07 04:10:34;;;;;;;15.45;10.15;;;;;;;12.54;93.29;101164.34;5052022;28;20049;-74
2022/06/07 04:13:03;;;;;;;14.88;10.38;;;;;;;12.52;93.00;101166.19;5047698;28;20531;-73
2022/06/07 04:15:30;;;;;;;21.02;10.75;;;;;;;12.54;93.17;101169.63;5048375;28;20042;-73
2022/06/07 04:17:59;;;;;;;15.13;10.88;;;;;;;12.54;93.06;101162.56;5040681;28;20883;-75
2022/06/07 04:20:30;;;;;;;19.42;9.55;;;;;;;12.53;91.78;101158.19;5040245;28;20069;-76
2022/06/07 04:22:59;;;;;;;14.52;10.63;;;;;;;12.51;91.98;101162.69;5033358;28;20042;-74
2022/06/07 04:25:29;;;;;;;18.00;11.68;;;;;;;12.52;91.95;101163.53;5052242;28;20482;-74
2022/06/07 04:27:57;;;;;;;17.63;9.63;;;;;;;12.54;92.39;101167.00;5040178;28;20594;-74
2022/06/07 04:30:26;;;;;;;14.20;9.43;;;;;;;12.56;91.31;101173.94;5034370;28;20038;-76
2022/06/07 04:32:58;;;;;;;11.25;8.20;;;;;;;12.56;89.73;101166.03;5044433;28;20041;-76
2022/06/07 04:35:27;;;;;;;12.88;9.25;;;;;;;12.52;90.30;101172.31;5047225;28;20103;-76
2022/06/07 04:37:59;;;;;;;12.23;8.93;;;;;;;12.51;90.44;101169.72;5048621;28;20044;-76
2022/06/07 04:40:33;;;;;;;13.13;8.20;;;;;;;12.49;89.99;101175.09;5048661;28;20135;-76
2022/06/07 04:43:01;;;;;;;16.05;9.18;;;;;;;12.48;90.14;101178.63;5043660;28;20046;-75
2022/06/07 04:45:33;;;;;;;15.35;8.60;;;;;;;12.48;90.19;101176.00;5025794;28;20038;-77
2022/06/07 04:48:11;;;;;;;15.20;8.90;;;;;;;12.48;90.46;101170.72;5045021;28;20100;-75
2022/06/07 04:50:47;;;;;;;13.98;8.50;;;;;;;12.49;90.60;101174.19;5045789;28;20132;-76
2022/06/07 04:53:19;;;;;;;14.55;9.27;;;;;;;12.54;89.34;101174.94;5047057;28;20057;-75
2022/06/07 04:55:46;;;;;;;11.60;7.88;;;;;;;12.59;89.77;101172.97;5031924;28;20130;-73
2022/06/07 04:58:14;;;;;;;14.30;8.27;;;;;;;12.63;89.20;101182.56;5035291;28;20850;-75
2022/06/07 05:00:45;;;;;;;15.27;7.90;;;;;;;12.64;88.87;101184.28;5037652;28;20050;-75
2022/06/07 05:03:13;;;;;;;15.50;9.55;;;;;;;12.69;90.51;101178.84;5040847;28;20612;-74
2022/06/07 05:05:41;;;;;;;12.25;7.50;;;;;;;12.75;90.29;101183.91;5046291;28;20065;-75
2022/06/07 05:08:17;;;;;;;17.02;8.90;;;;;;;12.84;91.00;101188.88;5045148;28;20037;-74
2022/06/07 05:10:46;;;;;;;12.88;8.35;;;;;;;12.86;88.65;101192.34;5047195;28;20496;-74
2022/06/07 05:13:14;;;;;;;12.93;6.75;;;;;;;12.88;88.99;101190.53;5031069;28;20062;-75
2022/06/07 05:15:41;;;;;;;17.70;8.60;;;;;;;12.93;89.13;101198.31;5038329;28;20117;-74
2022/06/07 05:18:14;;;;;;;14.15;8.57;;;;;;;13.01;88.46;101190.94;5037110;28;20112;-75
2022/06/07 05:20:46;;;;;;;17.55;8.55;;;;;;;13.02;88.54;101195.34;5051372;28;20124;-75
2022/06/07 05:23:16;;;;;;;13.48;8.02;;;;;;;13.07;89.22;101189.88;5042985;28;20092;-75
2022/06/07 05:25:59;;;;;;;14.50;8.43;;;;;;;13.15;88.52;101182.53;5055595;28;20587;-74
2022/06/07 05:28:28;;;;;;;18.30;8.30;;;;;;;13.21;87.95;101186.72;5046666;28;20103;-75
2022/06/07 05:30:57;;;;;;;11.77;7.55;;;;;;;13.26;88.39;101195.41;5041427;28;20901;-73
2022/06/07 05:33:39;;;;;;;12.80;8.75;;;;;;;13.30;86.95;101189.03;5030349;28;20104;-74
2022/06/07 05:36:09;;;;;;;21.17;9.85;;;;;;;13.29;88.15;101195.25;5021631;28;20507;-74
2022/06/07 05:38:47;;;;;;;14.10;9.40;;;;;;;13.26;88.30;101194.50;5048491;28;20604;-73
2022/06/07 05:41:29;;;;;;;16.50;8.98;;;;;;;13.26;88.35;101191.88;5033030;28;20890;-74
2022/06/07 05:44:24;;;;;;;14.85;9.23;;;;;;;13.29;87.21;101191.75;5047581;28;20041;-77
2022/06/07 05:46:54;;;;;;;16.25;9.35;;;;;;;13.31;86.88;101200.53;5045726;28;20120;-75
2022/06/07 05:49:41;;;;;;;17.98;9.48;;;;;;;13.33;85.76;101196.00;5048694;28;20228;-76
2022/06/07 05:52:11;;;;;;;16.98;8.98;;;;;;;13.35;86.16;101203.00;5046992;28;20037;-75
2022/06/07 05:54:42;;;;;;;18.05;9.85;;;;;;;13.42;86.63;101195.72;5049170;28;20068;-74
2022/06/07 05:57:10;;;;;;;18.15;10.05;;;;;;;13.51;87.90;101206.00;5043909;28;20077;-74
2022/06/07 05:59:39;;;;;;;25.58;9.90;;;;;;;13.66;88.42;101209.84;5043979;28;20686;-74
2022/06/07 06:02:11;;;;;;;20.23;11.48;;;;;;;13.78;88.03;101192.63;5045232;28;20045;-75
2022/06/07 06:04:40;;;;;;;16.35;9.70;;;;;;;13.91;87.53;101198.31;5045233;28;20038;-74
2022/06/07 06:07:09;;;;;;;16.17;9.70;;;;;;;14.00;85.94;101205.03;5046951;28;20046;-74
2022/06/07 06:12:33;;;;;;;22.30;10.57;;;;;;;14.31;85.21;101187.03;5067456;28;20042;-73
2022/06/07 06:15:09;;;;;;;20.77;10.55;;;;;;;14.39;84.55;101192.91;5055250;28;20048;-75
2022/06/07 06:17:40;;;;;;;17.75;10.60;;;;;;;14.36;82.92;101196.53;5066796;28;20037;-75
2022/06/07 06:20:15;;;;;;;16.92;10.07;;;;;;;14.35;82.93;101200.13;5057607;28;20045;-78
2022/06/07 06:22:48;;;;;;;22.38;11.38;;;;;;;14.36;83.41;101201.84;5038152;28;20133;-77
2022/06/07 06:25:16;;;;;;;17.58;11.77;;;;;;;14.39;83.50;101195.56;5046848;28;20092;-75
2022/06/07 06:27:44;;;;;;;18.45;11.93;;;;;;;14.44;84.12;101199.78;5034102;28;20042;-75
2022/06/07 06:30:12;;;;;;;18.63;11.95;;;;;;;14.52;82.52;101203.88;5037309;28;20052;-74
2022/06/07 06:32:48;;;;;;;16.17;11.18;;;;;;;14.60;82.92;101215.88;5047906;28;20507;-73
2022/06/07 06:35:19;;;;;;;18.98;12.32;;;;;;;14.69;83.08;101208.53;5046499;28;20112;-74
2022/06/07 06:37:48;;;;;;;19.35;12.55;;;;;;;14.70;83.86;101208.47;5047145;28;20083;-73
2022/06/07 06:40:19;;;;;;;18.05;11.95;;;;;;;14.72;84.12;101213.69;5046141;28;20034;-75
2022/06/07 06:42:53;;;;;;;20.70;12.63;;;;;;;14.74;83.47;101209.19;5040239;28;20514;-74
2022/06/07 06:45:53;;;;;;;22.25;12.45;;;;;;;14.81;84.40;101215.09;5046032;28;20057;-76
2022/06/07 06:48:21;;;;;;;25.35;13.50;;;;;;;14.90;82.71;101212.06;5040525;28;20045;-76
2022/06/07 06:50:59;;;;;;;24.23;13.20;;;;;;;14.97;82.36;101208.22;5043465;28;20463;-76
2022/06/07 06:53:27;;;;;;;22.27;13.80;;;;;;;15.07;81.88;101212.19;5038696;28;20077;-78
2022/06/07 06:56:00;;;;;;;21.42;13.55;;;;;;;15.13;81.56;101211.06;5033932;28;20108;-75
2022/06/07 06:58:29;;;;;;;31.17;14.48;;;;;;;15.18;81.61;101211.75;5045840;28;20049;-75
2022/06/07 07:01:13;;;;;;;21.20;13.93;;;;;;;15.23;80.64;101211.53;5043166;28;20038;-77
2022/06/07 07:03:42;;;;;;;23.20;15.13;;;;;;;15.29;81.35;101213.91;5043012;28;20841;-76
2022/06/07 07:06:14;;;;;;;20.65;13.27;;;;;;;15.45;81.03;101215.91;5035398;28;20073;-76
2022/06/07 07:08:46;;;;;;;30.02;15.10;;;;;;;15.64;80.27;101210.59;5060859;28;20134;-74
2022/06/07 07:11:26;;;;;;;20.65;14.00;;;;;;;15.88;77.94;101221.91;5045874;28;20046;-75
2022/06/07 07:13:59;;;;;;;22.52;14.13;;;;;;;15.99;79.18;101221.44;5046139;28;20060;-74
2022/06/07 07:16:31;;;;;;;24.05;15.20;;;;;;;16.14;79.66;101211.88;5035925;28;20092;-76
2022/06/07 07:19:03;;;;;;;23.92;15.30;;;;;;;16.44;79.39;101206.00;5039535;28;20045;-76
2022/06/07 07:21:35;;;;;;;25.35;14.45;;;;;;;16.70;76.30;101196.72;5040420;28;20056;-76
2022/06/07 07:24:13;;;;;;;25.27;15.23;;;;;;;16.95;75.27;101213.25;5026401;28;20129;-75
2022/06/07 07:26:46;;;;;;;26.85;15.98;;;;;;;17.26;75.03;101207.19;5034352;28;20050;-76
2022/06/07 07:29:20;;;;;;;27.90;14.63;;;;;;;17.61;74.41;101215.13;5025861;28;20070;-76
2022/06/07 07:31:49;;;;;;;22.83;14.77;;;;;;;17.75;73.39;101210.84;5030873;28;20053;-78
2022/06/07 07:34:21;;;;;;;17.73;12.55;;;;;;;18.01;68.59;101214.75;5046038;28;20046;-75
2022/06/07 07:36:57;;;;;;;25.33;14.32;;;;;;;17.90;71.88;101209.16;5047171;28;20583;-75
2022/06/07 07:39:29;;;;;;;26.98;15.27;;;;;;;17.88;73.55;101213.69;5041423;28;20048;-77
2022/06/07 07:41:57;;;;;;;22.75;14.90;;;;;;;17.94;73.18;101205.34;5043568;28;20038;-74
2022/06/07 07:44:28;;;;;;;17.90;14.00;;;;;;;18.01;71.27;101212.09;5047884;28;20069;-75
2022/06/07 07:46:59;;;;;;;20.58;15.35;;;;;;;17.85;71.36;101212.91;5046569;28;20033;-76
2022/06/07 07:49:32;;;;;;;23.30;15.63;;;;;;;17.64;70.91;101214.97;5043854;28;20086;-77
2022/06/07 07:52:01;;;;;;;20.67;13.85;;;;;;;17.49;71.34;101218.44;5048683;28;20144;-76
2022/06/07 07:54:42;;;;;;;20.65;15.93;;;;;;;17.35;72.05;101209.38;5037462;28;20064;-76
2022/06/07 07:57:15;;;;;;;21.92;15.43;;;;;;;17.25;72.90;101216.13;5030766;28;20108;-77
2022/06/07 07:59:45;;;;;;;20.77;15.48;;;;;;;17.27;72.54;101222.25;5036158;28;20038;-76
2022/06/07 08:02:21;;;;;;;20.42;14.68;;;;;;;17.25;72.40;101210.78;5028412;28;20089;-77
2022/06/07 08:05:04;;;;;;;22.20;15.90;;;;;;;17.25;74.04;101209.94;5028709;28;20045;-75
2022/06/07 08:07:33;;;;;;;21.55;14.10;;;;;;;17.22;72.34;101221.63;5041993;28;20643;-76
2022/06/07 08:10:20;;;;;;;21.17;14.82;;;;;;;17.15;71.84;101220.22;5049889;28;20037;-76
2022/06/07 08:12:54;;;;;;;;;;;;;;;17.12;71.82;101215.91;5050096;28;20145;-76
2022/06/07 08:15:23;;;;;;;20.02;16.25;;;;;;;17.21;72.20;101217.25;5031521;28;19925;-76
2022/06/07 08:17:52;;;;;;;19.77;14.75;;;;;;;17.38;74.02;101211.03;5030922;28;20048;-76
2022/06/07 08:20:22;;;;;;;18.70;14.48;;;;;;;17.68;72.39;101218.31;5030979;28;20046;-74
2022/06/07 08:22:49;;;;;;;18.00;14.50;;;;;;;17.98;70.86;101212.28;5031934;28;20105;-77
2022/06/07 08:25:19;;;;;;;20.42;12.75;;;;;;;18.28;68.98;101207.00;5030353;28;20038;-75
2022/06/07 08:27:47;;;;;;;19.30;14.05;;;;;;;18.80;67.12;101207.59;5031589;28;20053;-76
2022/06/07 08:30:15;;;;;;;23.85;14.60;;;;;;;19.27;66.49;101205.72;5048387;28;20053;-75
2022/06/07 08:32:43;;;;;;;17.85;14.00;;;;;;;19.49;65.43;101207.91;5045364;28;20045;-75
2022/06/07 08:38:04;;;;;;;17.95;13.15;;;;;;;19.54;64.80;101202.28;5030498;28;20054;-76
2022/06/07 08:40:44;;;;;;;21.15;14.10;;;;;;;19.22;63.08;101202.47;5031055;28;20046;-76
2022/06/07 08:43:36;;;;;;;18.27;14.55;;;;;;;18.93;64.66;101200.59;5037089;28;20132;-77
2022/06/07 08:46:04;;;;;;;16.98;13.38;;;;;;;18.92;64.79;101201.53;5030152;28;20049;-75
2022/06/07 08:48:35;;;;;;;15.55;12.48;;;;;;;19.08;63.37;101203.28;5030311;28;20129;-76
2022/06/07 08:51:28;;;;;;;18.98;14.02;;;;;;;19.17;64.59;101205.44;5036280;28;20072;-78
2022/06/07 08:54:00;;;;;;;16.65;14.15;;;;;;;19.29;64.10;101197.59;5049477;28;20084;-76
2022/06/07 08:56:34;;;;;;;23.67;13.65;;;;;;;19.39;64.74;101194.28;5049752;28;20037;-77
2022/06/07 08:59:15;;;;;;;18.60;13.32;;;;;;;19.57;63.25;101198.56;5042851;28;20124;-76
2022/06/07 09:02:13;;;;;;;16.23;12.15;;;;;;;19.76;60.25;101195.56;5029805;28;20652;-78
2022/06/07 09:04:40;;;;;;;80.25;16.48;;;;;;;19.76;62.21;101196.44;5036966;28;20038;-76
2022/06/07 09:07:19;;;;;;;48.45;16.08;;;;;;;19.76;60.30;101200.91;5040426;28;20121;-76
2022/06/07 09:12:57;;;;;;;24.02;16.10;;;;;;;19.74;61.08;101197.50;5041832;28;20054;-76
2022/06/07 09:15:30;;;;;;;18.17;14.60;;;;;;;19.73;60.41;101193.13;5046957;28;20045;-76
2022/06/07 09:18:04;;;;;;;17.20;14.60;;;;;;;19.98;60.31;101201.31;5048771;28;20049;-76
2022/06/07 09:20:38;;;;;;;18.83;15.10;;;;;;;19.89;58.98;101193.88;5043358;28;20059;-77
2022/06/07 09:23:52;;;;;;;18.67;15.43;;;;;;;19.76;60.28;101196.44;5046877;28;20057;-77
2022/06/07 09:26:36;;;;;;;20.23;15.30;;;;;;;19.76;61.03;101198.25;5043387;28;20490;-73
2022/06/07 09:29:14;;;;;;;14.85;13.32;;;;;;;19.68;60.77;101204.09;5040817;28;20558;-74
2022/06/07 09:31:45;;;;;;;19.02;14.98;;;;;;;19.61;62.16;101200.94;5047117;28;20665;-75
2022/06/07 09:34:26;;;;;;;21.77;15.35;;;;;;;19.60;62.62;101201.91;5043099;28;20060;-78
2022/06/07 09:37:03;;;;;;;15.93;13.52;;;;;;;19.65;60.35;101206.97;5044916;28;20117;-77
2022/06/07 09:39:43;;;;;;;17.27;14.70;;;;;;;19.60;59.85;101195.69;5036302;28;20163;-78
2022/06/07 09:42:25;;;;;;;19.98;14.90;;;;;;;19.59;61.28;101186.81;5042000;28;20041;-73
2022/06/07 09:45:35;;;;;;;19.63;15.18;;;;;;;19.51;60.93;101197.13;5045549;28;20029;-74
2022/06/07 09:48:34;;;;;;;17.65;13.35;;;;;;;19.49;59.91;101204.38;5045969;28;20610;-77
2022/06/07 09:51:15;;;;;;;15.40;13.15;;;;;;;19.45;59.65;101184.13;5046934;28;20166;-74
2022/06/07 09:54:01;;;;;;;22.55;15.88;;;;;;;19.29;60.93;101187.78;5036842;28;20120;-76
2022/06/07 09:57:00;;;;;;;16.05;13.60;;;;;;;19.25;60.49;101194.25;5046668;28;20570;-74
2022/06/07 09:59:49;;;;;;;17.40;13.95;;;;;;;19.46;59.44;101191.19;5047162;28;20068;-77
2022/06/07 10:02:50;;;;;;;17.75;13.50;;;;;;;19.75;58.31;101185.81;5045509;28;20061;-78
2022/06/07 10:05:33;;;;;;;14.65;12.57;;;;;;;20.03;58.98;101187.63;5043069;28;20034;-74
2022/06/07 10:08:28;;;;;;;12.38;10.57;;;;;;;20.06;57.47;101179.41;5044750;28;20051;-74
2022/06/07 10:11:05;;;;;;;;;;;;;;;20.14;57.88;101182.44;5047174;28;20048;-76
2022/06/07 10:14:19;;;;;;;12.85;11.48;;;;;;;20.41;57.67;101173.53;5044839;28;20494;-76
2022/06/07 10:17:28;;;;;;;19.63;11.80;;;;;;;20.67;58.02;101170.94;5049310;28;20585;-77
2022/06/07 10:20:28;;;;;;;14.70;11.18;;;;;;;21.06;55.68;101177.22;5048014;28;20078;-75
2022/06/07 10:23:27;;;;;;;13.60;11.48;;;;;;;21.55;55.58;101169.34;5046156;28;20073;-75
2022/06/07 10:26:12;;;;;;;13.07;10.10;;;;;;;21.91;52.60;101173.06;5049704;28;20045;-75
2022/06/07 10:28:54;;;;;;;9.80;8.90;;;;;;;21.98;52.21;101166.28;5041663;28;20562;-76
2022/06/07 10:31:49;;;;;;;12.05;10.00;;;;;;;22.26;53.44;101160.69;5045539;28;20580;-77
2022/06/07 10:34:49;;;;;;;18.80;10.75;;;;;;;22.17;53.39;101157.72;5042490;28;20770;-76
2022/06/07 10:38:15;;;;;;;16.17;11.15;;;;;;;22.13;52.99;101155.38;5045725;28;20044;-75
2022/06/07 10:41:15;;;;;;;16.33;10.40;;;;;;;22.21;52.42;101158.34;5042491;28;20124;-75
2022/06/07 10:44:00;;;;;;;15.82;9.73;;;;;;;22.16;50.55;101153.31;5041267;28;20355;-75
2022/06/07 10:46:29;;;;;;;10.48;7.22;;;;;;;22.20;50.47;101151.25;5045737;28;20817;-76
2022/06/07 10:49:43;;;;;;;11.63;9.13;;;;;;;22.33;49.58;101151.19;5050150;28;20507;-75
2022/06/07 10:52:21;;;;;;;10.57;7.72;;;;;;;22.44;48.97;101148.59;5047984;28;20528;-76
2022/06/07 10:55:13;;;;;;;9.80;8.20;;;;;;;22.38;49.80;101140.09;5050182;28;20448;-76
2022/06/07 10:58:09;;;;;;;10.68;8.50;;;;;;;22.24;48.65;101152.72;5047515;28;20054;-76
2022/06/07 11:01:01;;;;;;;11.25;10.10;;;;;;;22.19;48.48;101154.91;5049645;28;20471;-75
2022/06/07 11:03:40;;;;;;;10.77;8.98;;;;;;;22.15;49.64;101143.56;5048819;28;20041;-75
2022/06/07 11:10:06;;;;;;;15.07;8.23;;;;;;;22.25;49.33;101141.03;5033488;28;20058;-76
2022/06/07 11:12:49;;;;;;;9.73;8.85;;;;;;;22.40;51.49;101143.53;5048065;28;20581;-75
2022/06/07 11:15:46;;;;;;;178.95;16.33;;;;;;;22.72;51.17;101151.84;5045885;28;20041;-78
2022/06/07 11:18:32;;;;;;;14.60;9.25;;;;;;;23.00;50.96;101148.84;5050779;28;20052;-79
2022/06/07 11:21:02;;;;;;;8.25;7.43;;;;;;;23.11;50.05;101136.25;5050144;28;20896;-78
2022/06/07 11:23:43;;;;;;;9.02;7.65;;;;;;;22.90;50.34;101146.88;5043149;28;20065;-77
2022/06/07 11:26:18;;;;;;;10.55;7.82;;;;;;;22.56;50.64;101146.78;5047950;28;20037;-78
2022/06/07 11:28:52;;;;;;;10.80;7.10;;;;;;;22.24;50.78;101136.63;5041148;28;20038;-76
2022/06/07 11:31:40;;;;;;;7.75;5.90;;;;;;;22.19;49.88;101136.13;5042991;28;20478;-77
2022/06/07 11:34:27;;;;;;;8.75;5.82;;;;;;;22.22;49.55;101143.09;5043478;28;20137;-77
2022/06/07 11:37:21;;;;;;;8.20;5.55;;;;;;;22.06;50.48;101138.00;5035093;28;20940;-77
2022/06/07 11:39:57;;;;;;;9.63;6.40;;;;;;;21.88;51.00;101149.13;5047757;28;20124;-77
2022/06/07 11:42:33;;;;;;;10.10;6.15;;;;;;;21.69;51.14;101145.13;5041160;28;20041;-78
2022/06/07 11:45:25;;;;;;;14.82;8.25;;;;;;;21.37;51.00;101147.38;5049397;28;20112;-78
2022/06/07 11:48:23;;;;;;;20.20;9.45;;;;;;;21.03;52.35;101145.28;5047457;28;20128;-78
2022/06/07 11:51:15;;;;;;;15.20;6.93;;;;;;;21.19;51.96;101153.09;5041806;28;20969;-78
2022/06/07 11:54:04;;;;;;;9.38;5.80;;;;;;;21.62;51.29;101130.41;5046842;28;20111;-78
2022/06/07 11:56:43;;;;;;;6.53;5.25;;;;;;;21.82;50.59;101138.88;5045267;28;20045;-78
2022/06/07 11:59:16;;;;;;;16.27;6.30;;;;;;;21.70;50.15;101144.16;5047481;28;20117;-77
2022/06/07 12:01:53;;;;;;;13.45;5.03;;;;;;;21.59;51.10;101144.06;5047104;28;20050;-77
2022/06/07 12:04:37;;;;;;;22.67;5.35;;;;;;;21.47;51.34;101137.72;5046433;28;20516;-78
2022/06/07 12:07:32;;;;;;;10.98;3.80;;;;;;;21.48;51.47;101138.59;5044862;28;20065;-77
2022/06/07 12:10:27;;;;;;;14.52;4.60;;;;;;;21.50;52.54;101131.28;5042832;28;20052;-76
2022/06/07 12:13:13;;;;;;;10.52;3.95;;;;;;;21.54;51.87;101139.00;5035167;28;20065;-76